sensor_id;sensor_type;location;lat;lon;timestamp;pressure;altitude;pressure_sealevel;temperature;humidity
50310;BME280;36207;51.850;21.698;2022-09-13T00:02:07;99706.52;;;11.60;76.98
50310;BME280;36207;51.850;21.698;2022-09-13T00:04:34;99702.98;;;11.54;76.84
50310;BME280;36207;51.850;21.698;2022-09-13T00:07:00;99706.32;;;11.46;76.83
50310;BME280;36207;51.850;21.698;2022-09-13T00:09:26;99707.52;;;11.38;76.78
50310;BME280;36207;51.850;21.698;2022-09-13T00:11:52;99706.42;;;11.31;76.57
50310;BME280;36207;51.850;21.698;2022-09-13T00:14:18;99703.59;;;11.22;76.49
50310;BME280;36207;51.850;21.698;2022-09-13T00:16:44;99705.43;;;11.13;76.47
50310;BME280;36207;51.850;21.698;2022-09-13T00:19:10;99705.98;;;11.07;76.40
50310;BME280;36207;51.850;21.698;2022-09-13T00:21:37;99708.35;;;11.01;76.47
50310;BME280;36207;51.850;21.698;2022-09-13T00:24:03;99700.52;;;10.95;76.48
50310;BME280;36207;51.850;21.698;2022-09-13T00:26:29;99697.15;;;10.92;76.43
50310;BME280;36207;51.850;21.698;2022-09-13T00:28:57;99697.91;;;10.89;76.68
50310;BME280;36207;51.850;21.698;2022-09-13T00:31:25;99699.55;;;10.83;76.71
50310;BME280;36207;51.850;21.698;2022-09-13T00:33:53;99700.85;;;10.77;76.78
50310;BME280;36207;51.850;21.698;2022-09-13T00:36:19;99698.35;;;10.74;77.02
50310;BME280;36207;51.850;21.698;2022-09-13T00:38:45;99699.80;;;10.75;77.41
50310;BME280;36207;51.850;21.698;2022-09-13T00:41:14;99697.56;;;10.81;77.56
50310;BME280;36207;51.850;21.698;2022-09-13T00:43:53;99699.06;;;10.83;77.50
50310;BME280;36207;51.850;21.698;2022-09-13T00:46:41;99699.31;;;10.81;77.24
50310;BME280;36207;51.850;21.698;2022-09-13T00:49:19;99703.79;;;10.79;77.29
50310;BME280;36207;51.850;21.698;2022-09-13T00:51:58;99699.89;;;10.83;77.58
50310;BME280;36207;51.850;21.698;2022-09-13T00:54:28;99701.05;;;10.88;77.52
50310;BME280;36207;51.850;21.698;2022-09-13T00:56:58;99697.66;;;10.90;77.52
50310;BME280;36207;51.850;21.698;2022-09-13T00:59:34;99696.80;;;10.90;77.65
50310;BME280;36207;51.850;21.698;2022-09-13T01:02:02;99699.56;;;10.90;77.57
50310;BME280;36207;51.850;21.698;2022-09-13T01:04:31;99700.06;;;10.92;77.51
50310;BME280;36207;51.850;21.698;2022-09-13T01:07:11;99700.00;;;10.94;77.78
50310;BME280;36207;51.850;21.698;2022-09-13T01:09:42;99703.27;;;10.96;77.80
50310;BME280;36207;51.850;21.698;2022-09-13T01:12:24;99708.69;;;10.99;78.10
50310;BME280;36207;51.850;21.698;2022-09-13T01:14:52;99708.86;;;10.99;77.85
50310;BME280;36207;51.850;21.698;2022-09-13T01:17:18;99710.07;;;11.01;77.91
50310;BME280;36207;51.850;21.698;2022-09-13T01:19:44;99711.05;;;11.04;77.95
50310;BME280;36207;51.850;21.698;2022-09-13T01:31:26;99709.65;;;11.14;78.05
50310;BME280;36207;51.850;21.698;2022-09-13T01:34:15;99715.32;;;11.15;78.14
50310;BME280;36207;51.850;21.698;2022-09-13T01:39:16;99710.23;;;11.22;78.14
50310;BME280;36207;51.850;21.698;2022-09-13T01:47:59;99707.63;;;11.15;78.22
50310;BME280;36207;51.850;21.698;2022-09-13T01:50:49;99707.39;;;11.19;78.20
50310;BME280;36207;51.850;21.698;2022-09-13T01:53:43;99706.54;;;11.22;78.06
50310;BME280;36207;51.850;21.698;2022-09-13T01:56:25;99703.91;;;11.22;78.39
50310;BME280;36207;51.850;21.698;2022-09-13T01:58:56;99701.27;;;11.21;78.35
50310;BME280;36207;51.850;21.698;2022-09-13T02:01:37;99700.06;;;11.19;78.20
50310;BME280;36207;51.850;21.698;2022-09-13T02:04:20;99693.15;;;11.19;78.48
50310;BME280;36207;51.850;21.698;2022-09-13T02:07:24;99691.10;;;11.24;78.37
50310;BME280;36207;51.850;21.698;2022-09-13T02:09:55;99693.39;;;11.23;78.10
50310;BME280;36207;51.850;21.698;2022-09-13T02:12:25;99688.70;;;11.19;77.91
50310;BME280;36207;51.850;21.698;2022-09-13T02:15:08;99684.18;;;11.15;77.83
50310;BME280;36207;51.850;21.698;2022-09-13T02:17:38;99687.54;;;11.08;77.69
50310;BME280;36207;51.850;21.698;2022-09-13T02:20:17;99688.36;;;11.00;77.40
50310;BME280;36207;51.850;21.698;2022-09-13T02:22:51;99692.34;;;10.92;77.23
50310;BME280;36207;51.850;21.698;2022-09-13T02:25:21;99693.56;;;10.87;77.27
50310;BME280;36207;51.850;21.698;2022-09-13T02:27:54;99692.13;;;10.83;77.50
50310;BME280;36207;51.850;21.698;2022-09-13T02:30:24;99688.91;;;10.79;77.27
50310;BME280;36207;51.850;21.698;2022-09-13T02:32:57;99686.91;;;10.73;77.28
50310;BME280;36207;51.850;21.698;2022-09-13T02:35:39;99682.67;;;10.65;77.23
50310;BME280;36207;51.850;21.698;2022-09-13T02:38:17;99680.02;;;10.58;76.92
50310;BME280;36207;51.850;21.698;2022-09-13T02:40:52;99679.80;;;10.51;76.95
50310;BME280;36207;51.850;21.698;2022-09-13T02:43:43;99676.11;;;10.45;76.98
50310;BME280;36207;51.850;21.698;2022-09-13T02:46:46;99672.98;;;10.41;77.22
50310;BME280;36207;51.850;21.698;2022-09-13T02:49:24;99676.31;;;10.39;77.02
50310;BME280;36207;51.850;21.698;2022-09-13T03:00:40;99669.27;;;10.17;77.11
50310;BME280;36207;51.850;21.698;2022-09-13T03:03:09;99668.30;;;10.12;76.84
50310;BME280;36207;51.850;21.698;2022-09-13T03:05:37;99668.79;;;10.03;76.44
50310;BME280;36207;51.850;21.698;2022-09-13T03:08:04;99662.51;;;9.94;76.42
50310;BME280;36207;51.850;21.698;2022-09-13T03:16:14;99660.67;;;9.75;76.33
50310;BME280;36207;51.850;21.698;2022-09-13T03:30:10;99656.06;;;9.52;76.77
50310;BME280;36207;51.850;21.698;2022-09-13T03:32:48;99652.77;;;9.51;77.08
50310;BME280;36207;51.850;21.698;2022-09-13T03:38:23;99648.13;;;9.51;77.08
50310;BME280;36207;51.850;21.698;2022-09-13T03:41:02;99650.59;;;9.49;77.11
50310;BME280;36207;51.850;21.698;2022-09-13T03:43:34;99644.42;;;9.45;77.10
50310;BME280;36207;51.850;21.698;2022-09-13T03:48:48;99642.56;;;9.44;77.37
50310;BME280;36207;51.850;21.698;2022-09-13T03:51:15;99643.25;;;9.46;77.33
50310;BME280;36207;51.850;21.698;2022-09-13T03:53:50;99643.39;;;9.45;77.30
50310;BME280;36207;51.850;21.698;2022-09-13T03:56:19;99645.85;;;9.42;77.13
50310;BME280;36207;51.850;21.698;2022-09-13T03:58:46;99649.84;;;9.38;77.19
50310;BME280;36207;51.850;21.698;2022-09-13T04:01:16;99651.45;;;9.35;77.31
50310;BME280;36207;51.850;21.698;2022-09-13T04:03:43;99649.29;;;9.29;77.10
50310;BME280;36207;51.850;21.698;2022-09-13T04:06:10;99644.67;;;9.25;77.27
50310;BME280;36207;51.850;21.698;2022-09-13T04:08:36;99642.56;;;9.23;76.99
50310;BME280;36207;51.850;21.698;2022-09-13T04:11:02;99642.55;;;9.20;76.87
50310;BME280;36207;51.850;21.698;2022-09-13T04:13:28;99640.05;;;9.16;76.85
50310;BME280;36207;51.850;21.698;2022-09-13T04:15:54;99639.52;;;9.11;76.80
50310;BME280;36207;51.850;21.698;2022-09-13T04:18:20;99637.61;;;9.09;76.79
50310;BME280;36207;51.850;21.698;2022-09-13T04:20:57;99637.63;;;9.06;76.76
50310;BME280;36207;51.850;21.698;2022-09-13T04:23:25;99636.13;;;9.04;76.88
50310;BME280;36207;51.850;21.698;2022-09-13T04:25:52;99631.71;;;9.02;76.84
50310;BME280;36207;51.850;21.698;2022-09-13T04:28:20;99628.30;;;8.99;76.76
50310;BME280;36207;51.850;21.698;2022-09-13T04:30:48;99623.69;;;8.98;76.75
50310;BME280;36207;51.850;21.698;2022-09-13T04:33:14;99624.31;;;8.99;77.12
50310;BME280;36207;51.850;21.698;2022-09-13T04:35:44;99624.25;;;9.02;77.07
50310;BME280;36207;51.850;21.698;2022-09-13T04:38:10;99626.23;;;9.05;77.01
50310;BME280;36207;51.850;21.698;2022-09-13T04:40:36;99627.46;;;9.04;76.91
50310;BME280;36207;51.850;21.698;2022-09-13T04:43:05;99628.54;;;8.99;76.99
50310;BME280;36207;51.850;21.698;2022-09-13T04:45:31;99628.79;;;8.95;77.05
50310;BME280;36207;51.850;21.698;2022-09-13T04:47:57;99631.42;;;8.92;77.06
50310;BME280;36207;51.850;21.698;2022-09-13T04:50:24;99631.26;;;8.92;77.25
50310;BME280;36207;51.850;21.698;2022-09-13T04:52:53;99629.04;;;8.94;77.40
50310;BME280;36207;51.850;21.698;2022-09-13T04:55:20;99630.09;;;8.96;77.33
50310;BME280;36207;51.850;21.698;2022-09-13T04:57:46;99629.65;;;8.97;77.19
50310;BME280;36207;51.850;21.698;2022-09-13T05:00:12;99632.52;;;8.97;77.39
50310;BME280;36207;51.850;21.698;2022-09-13T05:02:38;99634.55;;;8.99;77.45
50310;BME280;36207;51.850;21.698;2022-09-13T05:05:05;99627.27;;;9.02;77.41
50310;BME280;36207;51.850;21.698;2022-09-13T05:07:31;99629.48;;;9.06;77.39
50310;BME280;36207;51.850;21.698;2022-09-13T05:09:57;99630.06;;;9.08;77.37
50310;BME280;36207;51.850;21.698;2022-09-13T05:12:23;99630.13;;;9.13;77.58
50310;BME280;36207;51.850;21.698;2022-09-13T05:14:49;99627.57;;;9.16;77.56
50310;BME280;36207;51.850;21.698;2022-09-13T05:17:15;99627.23;;;9.19;77.56
50310;BME280;36207;51.850;21.698;2022-09-13T05:19:41;99627.69;;;9.24;77.80
50310;BME280;36207;51.850;21.698;2022-09-13T05:22:08;99625.61;;;9.30;77.84
50310;BME280;36207;51.850;21.698;2022-09-13T05:24:34;99626.78;;;9.37;78.01
50310;BME280;36207;51.850;21.698;2022-09-13T05:27:01;99623.63;;;9.44;78.05
50310;BME280;36207;51.850;21.698;2022-09-13T05:29:27;99626.66;;;9.50;78.03
50310;BME280;36207;51.850;21.698;2022-09-13T05:31:53;99626.43;;;9.56;78.15
50310;BME280;36207;51.850;21.698;2022-09-13T05:34:19;99626.56;;;9.64;78.17
50310;BME280;36207;51.850;21.698;2022-09-13T05:36:46;99626.13;;;9.74;78.28
50310;BME280;36207;51.850;21.698;2022-09-13T05:39:13;99621.70;;;9.85;78.37
50310;BME280;36207;51.850;21.698;2022-09-13T05:41:40;99621.84;;;9.96;78.32
50310;BME280;36207;51.850;21.698;2022-09-13T05:44:10;99620.66;;;10.07;78.42
50310;BME280;36207;51.850;21.698;2022-09-13T05:46:36;99618.40;;;10.20;78.68
50310;BME280;36207;51.850;21.698;2022-09-13T05:49:02;99616.42;;;10.35;78.88
50310;BME280;36207;51.850;21.698;2022-09-13T05:51:28;99618.80;;;10.54;79.10
50310;BME280;36207;51.850;21.698;2022-09-13T05:53:54;99616.83;;;10.74;79.20
50310;BME280;36207;51.850;21.698;2022-09-13T05:56:25;99619.02;;;10.92;79.10
50310;BME280;36207;51.850;21.698;2022-09-13T05:58:53;99622.48;;;11.10;79.30
50310;BME280;36207;51.850;21.698;2022-09-13T06:01:22;99618.44;;;11.29;79.51
50310;BME280;36207;51.850;21.698;2022-09-13T06:03:54;99618.13;;;11.51;79.70
50310;BME280;36207;51.850;21.698;2022-09-13T06:06:21;99618.21;;;11.72;79.68
50310;BME280;36207;51.850;21.698;2022-09-13T06:08:51;99614.88;;;11.91;79.61
50310;BME280;36207;51.850;21.698;2022-09-13T06:11:18;99612.98;;;12.10;79.90
50310;BME280;36207;51.850;21.698;2022-09-13T06:13:45;99613.27;;;12.29;79.78
50310;BME280;36207;51.850;21.698;2022-09-13T06:16:12;99610.12;;;12.48;79.90
50310;BME280;36207;51.850;21.698;2022-09-13T06:18:39;99611.08;;;12.70;79.78
50310;BME280;36207;51.850;21.698;2022-09-13T06:21:10;99613.30;;;12.88;79.75
50310;BME280;36207;51.850;21.698;2022-09-13T06:23:37;99614.39;;;13.04;79.70
50310;BME280;36207;51.850;21.698;2022-09-13T06:28:32;99603.99;;;13.32;79.47
50310;BME280;36207;51.850;21.698;2022-09-13T06:33:29;99604.75;;;13.60;79.46
50310;BME280;36207;51.850;21.698;2022-09-13T06:35:59;99601.61;;;13.72;79.43
50310;BME280;36207;51.850;21.698;2022-09-13T06:38:25;99598.59;;;13.87;79.18
50310;BME280;36207;51.850;21.698;2022-09-13T06:41:02;99596.27;;;13.99;79.40
50310;BME280;36207;51.850;21.698;2022-09-13T06:43:29;99595.16;;;14.13;78.87
50310;BME280;36207;51.850;21.698;2022-09-13T06:46:04;99595.52;;;14.27;78.91
50310;BME280;36207;51.850;21.698;2022-09-13T06:48:36;99590.98;;;14.41;79.03
50310;BME280;36207;51.850;21.698;2022-09-13T06:51:06;99594.50;;;14.54;78.90
50310;BME280;36207;51.850;21.698;2022-09-13T06:53:34;99600.59;;;14.66;79.01
50310;BME280;36207;51.850;21.698;2022-09-13T06:56:09;99600.60;;;14.79;78.55
50310;BME280;36207;51.850;21.698;2022-09-13T06:58:36;99599.38;;;14.88;78.34
50310;BME280;36207;51.850;21.698;2022-09-13T07:04:04;99604.45;;;15.12;78.40
50310;BME280;36207;51.850;21.698;2022-09-13T07:06:33;99603.61;;;15.20;77.96
50310;BME280;36207;51.850;21.698;2022-09-13T07:09:01;99608.44;;;15.26;77.77
50310;BME280;36207;51.850;21.698;2022-09-13T07:11:30;99606.66;;;15.35;77.85
50310;BME280;36207;51.850;21.698;2022-09-13T07:13:57;99607.06;;;15.47;78.05
50310;BME280;36207;51.850;21.698;2022-09-13T07:16:26;99609.86;;;15.61;77.96
50310;BME280;36207;51.850;21.698;2022-09-13T07:18:56;99612.14;;;15.68;77.45
50310;BME280;36207;51.850;21.698;2022-09-13T07:21:23;99611.66;;;15.69;77.15
50310;BME280;36207;51.850;21.698;2022-09-13T07:23:51;99603.79;;;15.73;77.27
50310;BME280;36207;51.850;21.698;2022-09-13T07:26:17;99605.54;;;15.79;76.97
50310;BME280;36207;51.850;21.698;2022-09-13T07:28:47;99607.02;;;15.79;76.83
50310;BME280;36207;51.850;21.698;2022-09-13T07:31:19;99605.10;;;15.89;77.20
50310;BME280;36207;51.850;21.698;2022-09-13T07:33:47;99602.20;;;16.00;76.54
50310;BME280;36207;51.850;21.698;2022-09-13T07:36:17;99599.88;;;16.04;75.98
50310;BME280;36207;51.850;21.698;2022-09-13T07:38:44;99598.15;;;16.07;76.04
50310;BME280;36207;51.850;21.698;2022-09-13T07:41:12;99598.42;;;16.15;75.86
50310;BME280;36207;51.850;21.698;2022-09-13T07:43:39;99598.32;;;16.14;75.38
50310;BME280;36207;51.850;21.698;2022-09-13T07:46:07;99600.15;;;16.06;75.10
50310;BME280;36207;51.850;21.698;2022-09-13T07:48:36;99599.73;;;15.97;74.53
50310;BME280;36207;51.850;21.698;2022-09-13T07:51:22;99598.48;;;15.95;74.79
50310;BME280;36207;51.850;21.698;2022-09-13T07:53:50;99596.05;;;15.94;74.10
50310;BME280;36207;51.850;21.698;2022-09-13T07:56:22;99593.36;;;15.97;74.58
50310;BME280;36207;51.850;21.698;2022-09-13T07:58:50;99589.36;;;16.07;74.35
50310;BME280;36207;51.850;21.698;2022-09-13T08:01:44;99585.92;;;16.17;74.39
50310;BME280;36207;51.850;21.698;2022-09-13T08:04:13;99587.48;;;16.31;73.36
50310;BME280;36207;51.850;21.698;2022-09-13T08:06:42;99588.48;;;16.41;73.80
50310;BME280;36207;51.850;21.698;2022-09-13T08:09:12;99584.82;;;16.54;73.97
50310;BME280;36207;51.850;21.698;2022-09-13T08:11:44;99590.46;;;16.63;73.59
50310;BME280;36207;51.850;21.698;2022-09-13T08:14:14;99589.60;;;16.71;73.79
50310;BME280;36207;51.850;21.698;2022-09-13T08:16:41;99583.87;;;16.82;73.71
50310;BME280;36207;51.850;21.698;2022-09-13T08:19:12;99579.31;;;16.93;73.89
50310;BME280;36207;51.850;21.698;2022-09-13T08:21:39;99575.80;;;16.97;73.03
50310;BME280;36207;51.850;21.698;2022-09-13T08:24:12;99576.98;;;16.97;73.21
50310;BME280;36207;51.850;21.698;2022-09-13T08:26:39;99577.77;;;16.98;72.95
50310;BME280;36207;51.850;21.698;2022-09-13T08:29:05;99573.60;;;17.02;72.77
50310;BME280;36207;51.850;21.698;2022-09-13T08:31:32;99572.14;;;17.09;72.86
50310;BME280;36207;51.850;21.698;2022-09-13T08:33:59;99567.31;;;17.14;72.18
50310;BME280;36207;51.850;21.698;2022-09-13T08:36:27;99567.10;;;17.22;72.23
50310;BME280;36207;51.850;21.698;2022-09-13T08:38:58;99566.11;;;17.28;72.01
50310;BME280;36207;51.850;21.698;2022-09-13T08:46:57;99561.28;;;17.55;72.24
50310;BME280;36207;51.850;21.698;2022-09-13T08:49:33;99562.10;;;17.65;72.60
50310;BME280;36207;51.850;21.698;2022-09-13T08:54:53;99568.28;;;17.80;71.95
50310;BME280;36207;51.850;21.698;2022-09-13T08:57:50;99569.58;;;17.92;72.10
50310;BME280;36207;51.850;21.698;2022-09-13T09:00:30;99566.66;;;18.03;71.25
50310;BME280;36207;51.850;21.698;2022-09-13T09:03:24;99562.13;;;18.14;70.71
50310;BME280;36207;51.850;21.698;2022-09-13T09:05:58;99559.95;;;18.24;70.83
50310;BME280;36207;51.850;21.698;2022-09-13T09:08:30;99559.17;;;18.34;71.19
50310;BME280;36207;51.850;21.698;2022-09-13T09:11:03;99558.42;;;18.43;70.75
50310;BME280;36207;51.850;21.698;2022-09-13T09:13:43;99559.18;;;18.46;69.89
50310;BME280;36207;51.850;21.698;2022-09-13T09:18:53;99560.97;;;18.52;69.73
50310;BME280;36207;51.850;21.698;2022-09-13T09:21:20;99560.29;;;18.59;69.34
50310;BME280;36207;51.850;21.698;2022-09-13T09:23:51;99555.09;;;18.62;68.50
50310;BME280;36207;51.850;21.698;2022-09-13T09:26:23;99553.35;;;18.67;69.01
50310;BME280;36207;51.850;21.698;2022-09-13T09:29:15;99551.02;;;18.72;68.48
50310;BME280;36207;51.850;21.698;2022-09-13T09:36:53;99538.41;;;18.83;68.40
50310;BME280;36207;51.850;21.698;2022-09-13T09:39:30;99539.25;;;18.91;68.64
50310;BME280;36207;51.850;21.698;2022-09-13T09:42:11;99540.32;;;18.98;68.19
50310;BME280;36207;51.850;21.698;2022-09-13T09:44:39;99539.25;;;19.06;68.18
50310;BME280;36207;51.850;21.698;2022-09-13T09:47:22;99535.98;;;19.14;68.91
50310;BME280;36207;51.850;21.698;2022-09-13T09:50:03;99533.06;;;19.25;68.52
50310;BME280;36207;51.850;21.698;2022-09-13T09:52:58;99525.17;;;19.37;68.64
50310;BME280;36207;51.850;21.698;2022-09-13T09:55:34;99529.14;;;19.49;68.37
50310;BME280;36207;51.850;21.698;2022-09-13T09:58:05;99529.15;;;19.55;67.59
50310;BME280;36207;51.850;21.698;2022-09-13T10:00:49;99527.02;;;19.52;66.91
50310;BME280;36207;51.850;21.698;2022-09-13T10:03:18;99525.67;;;19.46;66.58
50310;BME280;36207;51.850;21.698;2022-09-13T10:05:45;99527.20;;;19.43;66.81
50310;BME280;36207;51.850;21.698;2022-09-13T10:08:27;99526.23;;;19.46;66.78
50310;BME280;36207;51.850;21.698;2022-09-13T10:10:56;99520.16;;;19.47;65.75
50310;BME280;36207;51.850;21.698;2022-09-13T10:13:26;99519.89;;;19.47;66.13
50310;BME280;36207;51.850;21.698;2022-09-13T10:15:54;99515.08;;;19.44;65.67
50310;BME280;36207;51.850;21.698;2022-09-13T10:18:21;99514.31;;;19.43;64.95
50310;BME280;36207;51.850;21.698;2022-09-13T10:23:47;99512.54;;;19.39;65.31
50310;BME280;36207;51.850;21.698;2022-09-13T10:26:23;99510.68;;;19.39;64.87
50310;BME280;36207;51.850;21.698;2022-09-13T10:31:18;99502.70;;;19.30;63.75
50310;BME280;36207;51.850;21.698;2022-09-13T10:36:52;99497.80;;;19.16;63.38
50310;BME280;36207;51.850;21.698;2022-09-13T10:39:20;99494.21;;;19.12;64.28
50310;BME280;36207;51.850;21.698;2022-09-13T10:42:05;99486.92;;;19.09;63.51
50310;BME280;36207;51.850;21.698;2022-09-13T10:45:00;99482.96;;;19.06;63.29
50310;BME280;36207;51.850;21.698;2022-09-13T10:47:46;99482.52;;;19.05;63.55
50310;BME280;36207;51.850;21.698;2022-09-13T10:50:27;99482.06;;;19.07;64.10
50310;BME280;36207;51.850;21.698;2022-09-13T10:52:54;99474.66;;;19.07;63.83
50310;BME280;36207;51.850;21.698;2022-09-13T10:57:49;99471.48;;;19.05;63.88
50310;BME280;36207;51.850;21.698;2022-09-13T11:00:24;99469.19;;;19.03;63.56
50310;BME280;36207;51.850;21.698;2022-09-13T11:11:31;99466.42;;;18.91;62.72
50310;BME280;36207;51.850;21.698;2022-09-13T11:14:27;99464.02;;;18.90;62.73
50310;BME280;36207;51.850;21.698;2022-09-13T11:40:09;99451.54;;;18.96;61.79
50310;BME280;36207;51.850;21.698;2022-09-13T11:45:33;99443.56;;;18.91;62.08
50310;BME280;36207;51.850;21.698;2022-09-13T11:51:18;99429.90;;;18.85;61.98
50310;BME280;36207;51.850;21.698;2022-09-13T11:54:13;99423.09;;;18.78;62.07
50310;BME280;36207;51.850;21.698;2022-09-13T11:56:50;99419.89;;;18.72;62.08
50310;BME280;36207;51.850;21.698;2022-09-13T12:02:01;99416.90;;;18.61;62.03
50310;BME280;36207;51.850;21.698;2022-09-13T12:07:35;99406.45;;;18.53;62.25
50310;BME280;36207;51.850;21.698;2022-09-13T12:10:12;99405.71;;;18.52;62.33
50310;BME280;36207;51.850;21.698;2022-09-13T12:12:41;99400.22;;;18.53;62.60
50310;BME280;36207;51.850;21.698;2022-09-13T12:15:21;99400.54;;;18.55;62.79
50310;BME280;36207;51.850;21.698;2022-09-13T12:17:55;99394.09;;;18.59;63.01
50310;BME280;36207;51.850;21.698;2022-09-13T12:20:52;99390.91;;;18.63;62.94
50310;BME280;36207;51.850;21.698;2022-09-13T12:23:50;99390.41;;;18.68;63.16
50310;BME280;36207;51.850;21.698;2022-09-13T12:26:23;99386.63;;;18.72;62.98
50310;BME280;36207;51.850;21.698;2022-09-13T12:28:58;99384.20;;;18.73;62.82
50310;BME280;36207;51.850;21.698;2022-09-13T12:31:29;99381.23;;;18.72;62.82
50310;BME280;36207;51.850;21.698;2022-09-13T12:33:57;99378.07;;;18.71;62.89
50310;BME280;36207;51.850;21.698;2022-09-13T12:44:46;99367.56;;;18.60;62.37
50310;BME280;36207;51.850;21.698;2022-09-13T12:55:35;99347.89;;;18.61;62.25
50310;BME280;36207;51.850;21.698;2022-09-13T12:58:46;99349.92;;;18.63;62.41
50310;BME280;36207;51.850;21.698;2022-09-13T13:01:22;99344.82;;;18.64;62.35
50310;BME280;36207;51.850;21.698;2022-09-13T13:03:58;99339.80;;;18.65;62.20
50310;BME280;36207;51.850;21.698;2022-09-13T13:06:33;99338.92;;;18.64;61.72
50310;BME280;36207;51.850;21.698;2022-09-13T13:11:53;99335.96;;;18.62;62.35
50310;BME280;36207;51.850;21.698;2022-09-13T13:17:35;99330.84;;;18.59;61.92
50310;BME280;36207;51.850;21.698;2022-09-13T13:23:19;99320.05;;;18.50;61.92
50310;BME280;36207;51.850;21.698;2022-09-13T13:26:54;99317.95;;;18.47;62.11
50310;BME280;36207;51.850;21.698;2022-09-13T13:29:22;99319.49;;;18.42;62.06
50310;BME280;36207;51.850;21.698;2022-09-13T13:36:52;99320.03;;;18.27;61.65
50310;BME280;36207;51.850;21.698;2022-09-13T13:41:59;99318.71;;;18.16;61.68
50310;BME280;36207;51.850;21.698;2022-09-13T13:46:54;99306.40;;;18.06;62.00
50310;BME280;36207;51.850;21.698;2022-09-13T14:00:18;99271.92;;;17.89;62.10
50310;BME280;36207;51.850;21.698;2022-09-13T14:16:31;99259.52;;;17.69;61.93
50310;BME280;36207;51.850;21.698;2022-09-13T14:21:28;99250.59;;;17.65;62.24
50310;BME280;36207;51.850;21.698;2022-09-13T14:24:21;99248.64;;;17.64;62.20
50310;BME280;36207;51.850;21.698;2022-09-13T14:26:57;99245.27;;;17.62;62.09
50310;BME280;36207;51.850;21.698;2022-09-13T14:29:24;99246.09;;;17.61;62.28
50310;BME280;36207;51.850;21.698;2022-09-13T14:31:54;99249.14;;;17.60;62.24
50310;BME280;36207;51.850;21.698;2022-09-13T14:34:28;99247.46;;;17.59;62.37
50310;BME280;36207;51.850;21.698;2022-09-13T14:37:00;99244.38;;;17.58;62.37
50310;BME280;36207;51.850;21.698;2022-09-13T14:39:28;99246.59;;;17.58;62.50
50310;BME280;36207;51.850;21.698;2022-09-13T14:42:06;99247.81;;;17.57;62.41
50310;BME280;36207;51.850;21.698;2022-09-13T14:44:37;99243.37;;;17.56;62.58
50310;BME280;36207;51.850;21.698;2022-09-13T14:47:25;99236.08;;;17.56;62.86
50310;BME280;36207;51.850;21.698;2022-09-13T14:49:59;99228.94;;;17.56;62.65
50310;BME280;36207;51.850;21.698;2022-09-13T14:52:38;99226.30;;;17.53;62.67
50310;BME280;36207;51.850;21.698;2022-09-13T14:55:11;99225.66;;;17.50;62.75
50310;BME280;36207;51.850;21.698;2022-09-13T14:57:43;99216.50;;;17.48;62.40
50310;BME280;36207;51.850;21.698;2022-09-13T15:00:17;99210.86;;;17.43;62.65
50310;BME280;36207;51.850;21.698;2022-09-13T15:05:18;99215.52;;;17.40;62.88
50310;BME280;36207;51.850;21.698;2022-09-13T15:07:52;99219.38;;;17.39;62.66
50310;BME280;36207;51.850;21.698;2022-09-13T15:10:26;99217.38;;;17.36;62.44
50310;BME280;36207;51.850;21.698;2022-09-13T15:15:39;99217.64;;;17.33;62.72
50310;BME280;36207;51.850;21.698;2022-09-13T15:21:12;99224.34;;;17.30;62.83
50310;BME280;36207;51.850;21.698;2022-09-13T15:23:41;99220.45;;;17.27;62.95
50310;BME280;36207;51.850;21.698;2022-09-13T15:26:24;99210.70;;;17.25;63.14
50310;BME280;36207;51.850;21.698;2022-09-13T15:28:52;99210.17;;;17.23;63.08
50310;BME280;36207;51.850;21.698;2022-09-13T15:31:27;99208.96;;;17.22;63.32
50310;BME280;36207;51.850;21.698;2022-09-13T15:34:29;99203.65;;;17.20;63.34
50310;BME280;36207;51.850;21.698;2022-09-13T15:39:48;99201.44;;;17.23;63.65
50310;BME280;36207;51.850;21.698;2022-09-13T15:42:16;99190.25;;;17.25;63.68
50310;BME280;36207;51.850;21.698;2022-09-13T15:44:42;99188.83;;;17.27;63.89
50310;BME280;36207;51.850;21.698;2022-09-13T15:47:13;99186.91;;;17.28;64.23
50310;BME280;36207;51.850;21.698;2022-09-13T15:49:46;99191.83;;;17.29;64.16
50310;BME280;36207;51.850;21.698;2022-09-13T15:52:15;99194.35;;;17.28;64.25
50310;BME280;36207;51.850;21.698;2022-09-13T15:54:42;99188.36;;;17.25;64.11
50310;BME280;36207;51.850;21.698;2022-09-13T15:57:22;99192.30;;;17.22;64.19
50310;BME280;36207;51.850;21.698;2022-09-13T15:59:50;99189.91;;;17.22;64.21
50310;BME280;36207;51.850;21.698;2022-09-13T16:02:25;99187.17;;;17.22;64.23
50310;BME280;36207;51.850;21.698;2022-09-13T16:04:54;99184.64;;;17.22;64.17
50310;BME280;36207;51.850;21.698;2022-09-13T16:07:22;99181.16;;;17.21;64.20
50310;BME280;36207;51.850;21.698;2022-09-13T16:09:48;99178.02;;;17.19;64.31
50310;BME280;36207;51.850;21.698;2022-09-13T16:12:15;99174.75;;;17.16;64.26
50310;BME280;36207;51.850;21.698;2022-09-13T16:14:44;99175.35;;;17.12;64.51
50310;BME280;36207;51.850;21.698;2022-09-13T16:17:22;99175.75;;;17.08;64.49
50310;BME280;36207;51.850;21.698;2022-09-13T16:19:49;99170.76;;;17.03;64.53
50310;BME280;36207;51.850;21.698;2022-09-13T16:22:16;99175.46;;;16.98;64.40
50310;BME280;36207;51.850;21.698;2022-09-13T16:24:42;99178.02;;;16.93;64.55
50310;BME280;36207;51.850;21.698;2022-09-13T16:27:11;99177.20;;;16.90;64.65
50310;BME280;36207;51.850;21.698;2022-09-13T16:29:37;99174.52;;;16.88;64.76
50310;BME280;36207;51.850;21.698;2022-09-13T16:32:04;99171.92;;;16.87;64.66
50310;BME280;36207;51.850;21.698;2022-09-13T16:34:30;99170.57;;;16.84;64.70
50310;BME280;36207;51.850;21.698;2022-09-13T16:36:56;99173.91;;;16.84;64.69
50310;BME280;36207;51.850;21.698;2022-09-13T16:39:23;99168.60;;;16.82;64.64
50310;BME280;36207;51.850;21.698;2022-09-13T16:41:49;99166.77;;;16.80;64.79